createdAt,value
2022-10-04T00:03:37.510Z,9.3
2022-10-04T00:08:37.670Z,9.2
2022-10-04T00:13:37.479Z,9.2
2022-10-04T00:18:37.484Z,9.1
2022-10-04T00:23:37.722Z,9.1
2022-10-04T00:28:38.536Z,9.1
2022-10-04T00:33:37.472Z,9.1
2022-10-04T00:38:37.435Z,9.1
2022-10-04T00:43:37.389Z,9.1
2022-10-04T00:48:37.467Z,9.1
2022-10-04T00:53:37.534Z,9.1
2022-10-04T00:58:37.412Z,9.1
2022-10-04T01:03:37.399Z,9.1
2022-10-04T01:08:37.506Z,9.1
2022-10-04T01:13:37.421Z,9.1
2022-10-04T01:18:37.440Z,9.1
2022-10-04T01:23:37.536Z,9.1
2022-10-04T01:28:37.563Z,9.1
2022-10-04T01:33:37.392Z,9.0
2022-10-04T01:38:37.477Z,9.0
2022-10-04T01:43:37.461Z,9.0
2022-10-04T01:48:37.269Z,9.0
2022-10-04T01:53:37.454Z,9.0
2022-10-04T01:58:37.542Z,9.0
2022-10-04T02:03:37.418Z,9.0
2022-10-04T02:08:37.480Z,9.0
2022-10-04T02:13:37.311Z,8.9
2022-10-04T02:18:37.332Z,8.9
2022-10-04T02:23:37.428Z,9.0
2022-10-04T02:28:37.352Z,8.9
2022-10-04T02:33:37.285Z,8.9
2022-10-04T02:38:37.565Z,8.9
2022-10-04T02:43:37.436Z,8.9
2022-10-04T02:48:37.227Z,8.9
2022-10-04T02:53:37.452Z,8.9
2022-10-04T02:58:37.227Z,8.9
2022-10-04T03:03:37.126Z,8.8
2022-10-04T03:08:37.370Z,8.8
2022-10-04T03:13:37.186Z,8.8
2022-10-04T03:18:37.181Z,8.8
2022-10-04T03:23:38.467Z,8.9
2022-10-04T03:28:37.247Z,8.9
2022-10-04T03:33:37.151Z,8.9
2022-10-04T03:38:37.093Z,8.9
2022-10-04T03:43:37.091Z,8.9
2022-10-04T03:48:37.556Z,8.9
2022-10-04T03:53:37.278Z,8.8
2022-10-04T03:58:37.168Z,8.8
2022-10-04T04:03:37.079Z,8.8
2022-10-04T04:08:37.215Z,8.8
2022-10-04T04:13:37.125Z,8.8
2022-10-04T04:18:37.065Z,8.7
2022-10-04T04:23:37.307Z,8.7
2022-10-04T04:28:37.157Z,8.7
2022-10-04T04:33:37.140Z,8.6
2022-10-04T04:38:37.262Z,8.6
2022-10-04T04:43:37.104Z,8.5
2022-10-04T04:48:37.045Z,8.5
2022-10-04T04:53:37.276Z,8.5
2022-10-04T04:58:37.045Z,8.4
2022-10-04T05:03:37.011Z,8.4
2022-10-04T05:08:41.289Z,8.4
2022-10-04T05:13:36.936Z,8.4
2022-10-04T05:18:36.928Z,8.4
2022-10-04T05:23:37.121Z,8.5
2022-10-04T05:28:37.032Z,8.5
2022-10-04T05:33:36.991Z,8.5
2022-10-04T05:38:37.146Z,8.5
2022-10-04T05:43:36.976Z,8.5
2022-10-04T05:48:36.822Z,8.5
2022-10-04T05:53:37.242Z,8.5
2022-10-04T05:58:36.924Z,8.6
2022-10-04T06:03:36.885Z,8.6
2022-10-04T06:08:37.061Z,8.6
2022-10-04T06:13:36.901Z,8.7
2022-10-04T06:18:36.822Z,8.7
2022-10-04T06:23:37.155Z,8.7
2022-10-04T06:28:36.902Z,8.8
2022-10-04T06:33:36.804Z,8.8
2022-10-04T06:38:37.011Z,8.9
2022-10-04T06:43:36.837Z,8.9
2022-10-04T06:48:36.797Z,9.0
2022-10-04T06:53:37.021Z,9.1
2022-10-04T06:58:36.829Z,9.1
2022-10-04T07:03:36.811Z,9.1
2022-10-04T07:08:37.045Z,9.1
2022-10-04T07:13:36.796Z,9.2
2022-10-04T07:18:36.794Z,9.2
2022-10-04T07:23:37.051Z,9.3
2022-10-04T07:28:36.871Z,9.3
2022-10-04T07:33:36.835Z,9.3
2022-10-04T07:38:36.955Z,9.3
2022-10-04T07:43:36.647Z,9.4
2022-10-04T07:48:36.769Z,9.5
2022-10-04T07:53:36.981Z,9.5
2022-10-04T07:58:36.824Z,9.6
2022-10-04T08:03:36.736Z,9.7
2022-10-04T08:08:36.930Z,9.8
2022-10-04T08:13:36.730Z,9.8
2022-10-04T08:18:36.717Z,9.8
2022-10-04T08:23:36.930Z,9.9
2022-10-04T08:28:36.934Z,9.9
2022-10-04T08:33:37.108Z,10.0
2022-10-04T08:38:36.601Z,10.0
2022-10-04T08:43:36.621Z,10.0
2022-10-04T08:48:36.567Z,10.0
2022-10-04T08:53:36.782Z,10.1
2022-10-04T08:58:36.716Z,10.3
2022-10-04T09:03:36.650Z,10.5
2022-10-04T09:08:36.871Z,10.7
2022-10-04T09:13:36.790Z,10.7
2022-10-04T09:18:36.655Z,10.7
2022-10-04T09:23:36.613Z,10.6
2022-10-04T09:28:36.702Z,10.6
2022-10-04T09:33:36.704Z,10.7
2022-10-04T09:43:36.502Z,10.8
2022-10-04T09:48:36.450Z,10.9
2022-10-04T09:53:36.656Z,11.0
2022-10-04T09:58:36.483Z,11.1
2022-10-04T10:03:36.629Z,11.2
2022-10-04T10:08:37.794Z,11.2
2022-10-04T10:13:36.427Z,11.2
2022-10-04T10:18:36.537Z,11.3
2022-10-04T10:23:36.652Z,11.7
2022-10-04T10:28:36.939Z,12.1
2022-10-04T10:33:36.568Z,12.4
2022-10-04T10:38:36.439Z,12.6
2022-10-04T10:43:36.408Z,12.4
2022-10-04T10:48:36.421Z,12.3
2022-10-04T10:53:36.657Z,12.1
2022-10-04T11:03:36.466Z,12.0
2022-10-04T11:08:36.440Z,12.3
2022-10-04T11:13:36.451Z,12.6
2022-10-04T11:18:36.468Z,12.5
2022-10-04T11:23:36.331Z,12.3
2022-10-04T11:28:36.454Z,12.2
2022-10-04T11:33:36.436Z,12.1
2022-10-04T11:38:36.562Z,12.5
2022-10-04T11:43:36.458Z,12.5
2022-10-04T11:48:36.454Z,12.4
2022-10-04T11:53:36.568Z,12.6
2022-10-04T11:58:36.354Z,12.9
2022-10-04T12:03:37.235Z,13.2
2022-10-04T12:08:36.665Z,13.3
2022-10-04T12:13:36.377Z,13.1
2022-10-04T12:18:36.581Z,13.2
2022-10-04T12:23:36.340Z,13.4
2022-10-04T12:28:36.618Z,13.7
2022-10-04T12:33:36.293Z,13.8
2022-10-04T12:38:36.313Z,13.6
2022-10-04T12:43:36.184Z,13.4
2022-10-04T12:48:36.259Z,13.2
2022-10-04T12:53:36.575Z,13.0
2022-10-04T12:58:38.458Z,12.9
2022-10-04T13:03:36.223Z,12.7
2022-10-04T13:08:36.841Z,12.6
2022-10-04T13:13:36.475Z,12.7
2022-10-04T13:18:36.895Z,12.9
2022-10-04T13:23:36.127Z,13.1
2022-10-04T13:28:36.501Z,13.2
2022-10-04T13:33:37.460Z,13.4
2022-10-04T13:38:36.159Z,13.3
2022-10-04T13:43:36.271Z,13.0
2022-10-04T13:48:36.209Z,13.0
2022-10-04T13:53:36.093Z,13.2
2022-10-04T13:58:36.337Z,13.3
2022-10-04T14:03:37.453Z,13.4
2022-10-04T14:08:36.072Z,13.4
2022-10-04T14:13:36.164Z,13.4
2022-10-04T14:18:36.199Z,13.3
2022-10-04T14:23:36.148Z,13.2
2022-10-04T14:28:36.393Z,13.2
2022-10-04T14:33:36.287Z,13.1
2022-10-04T14:38:36.109Z,13.0
2022-10-04T14:43:37.399Z,13.0
2022-10-04T14:48:36.002Z,13.0
2022-10-04T14:53:36.000Z,12.9
2022-10-04T14:58:36.233Z,12.9
2022-10-04T15:03:35.991Z,12.8
2022-10-04T15:08:36.013Z,12.7
2022-10-04T15:13:36.084Z,12.6
2022-10-04T15:18:36.034Z,12.5
2022-10-04T15:23:35.891Z,12.5
2022-10-04T15:28:36.229Z,12.4
2022-10-04T15:33:35.925Z,12.4
2022-10-04T15:38:35.987Z,12.3
2022-10-04T15:43:36.124Z,12.1
2022-10-04T15:48:35.910Z,12.0
2022-10-04T15:53:35.938Z,11.9
2022-10-04T15:58:36.021Z,11.8
2022-10-04T16:03:35.904Z,11.6
2022-10-04T16:08:35.950Z,11.3
2022-10-04T16:13:36.263Z,11.1
2022-10-04T16:18:35.905Z,10.8
2022-10-04T16:23:36.049Z,10.6
2022-10-04T16:28:36.183Z,10.3
2022-10-04T16:33:35.895Z,10.1
2022-10-04T16:43:36.865Z,9.9
2022-10-04T16:48:35.892Z,9.5
2022-10-04T16:53:35.995Z,9.4
2022-10-04T16:58:35.756Z,9.2
2022-10-04T17:03:36.011Z,9.0
2022-10-04T17:08:35.905Z,8.8
2022-10-04T17:13:35.810Z,8.6
2022-10-04T17:18:35.950Z,8.5
2022-10-04T17:23:35.697Z,8.4
2022-10-04T17:28:36.534Z,8.3
2022-10-04T17:33:35.828Z,8.1
2022-10-04T17:38:35.785Z,8.0
2022-10-04T17:43:35.952Z,7.9
2022-10-04T17:48:35.713Z,7.8
2022-10-04T17:53:35.752Z,7.8
2022-10-04T17:58:36.669Z,7.7
2022-10-04T18:03:35.819Z,7.6
2022-10-04T18:08:35.711Z,7.5
2022-10-04T18:13:36.450Z,7.5
2022-10-04T18:18:35.693Z,7.4
2022-10-04T18:23:36.472Z,7.4
2022-10-04T18:28:37.658Z,7.4
2022-10-04T18:33:35.924Z,7.3
2022-10-04T18:38:35.648Z,7.2
2022-10-04T18:43:35.676Z,7.2
2022-10-04T18:48:35.673Z,7.1
2022-10-04T18:53:35.656Z,7.1
2022-10-04T18:58:38.306Z,7.1
2022-10-04T19:03:35.650Z,7.0
2022-10-04T19:08:35.769Z,7.0
2022-10-04T19:13:36.014Z,7.0
2022-10-04T19:18:35.495Z,6.9
2022-10-04T19:23:35.666Z,6.9
2022-10-04T19:28:35.796Z,6.8
2022-10-04T19:33:35.542Z,6.8
2022-10-04T19:38:35.524Z,6.8
2022-10-04T19:43:35.624Z,6.8
2022-10-04T19:48:36.167Z,6.8
2022-10-04T19:53:39.139Z,6.8
2022-10-04T19:58:37.484Z,6.7
2022-10-04T20:03:35.797Z,6.7
2022-10-04T20:08:35.851Z,6.7
2022-10-04T20:13:35.993Z,6.6
2022-10-04T20:18:35.447Z,6.6
2022-10-04T20:23:35.779Z,6.6
2022-10-04T20:28:36.152Z,6.5
2022-10-04T20:33:35.401Z,6.5
2022-10-04T20:38:35.693Z,6.5
2022-10-04T20:43:35.652Z,6.5
2022-10-04T20:48:35.656Z,6.4
2022-10-04T20:53:35.383Z,6.4
2022-10-04T20:58:35.661Z,6.4
2022-10-04T21:03:35.442Z,6.3
2022-10-04T21:08:35.334Z,6.3
2022-10-04T21:13:35.610Z,6.3
2022-10-04T21:18:35.359Z,6.3
2022-10-04T21:23:35.314Z,6.2
2022-10-04T21:28:35.559Z,6.2
2022-10-04T21:33:35.308Z,6.2
2022-10-04T21:38:35.334Z,6.1
2022-10-04T21:43:35.439Z,6.1
2022-10-04T21:48:35.305Z,6.0
2022-10-04T21:53:35.295Z,6.0
2022-10-04T21:58:35.485Z,6.0
2022-10-04T22:03:35.276Z,5.9
2022-10-04T22:08:35.252Z,5.9
2022-10-04T22:13:35.389Z,5.9
2022-10-04T22:18:35.316Z,5.9
2022-10-04T22:23:35.267Z,5.8
2022-10-04T22:28:35.613Z,5.8
2022-10-04T22:33:35.311Z,5.8
2022-10-04T22:38:35.192Z,5.8
2022-10-04T22:43:35.455Z,5.8
2022-10-04T22:48:35.381Z,5.8
2022-10-04T22:53:35.196Z,5.8
2022-10-04T22:58:35.216Z,5.8
2022-10-04T23:03:35.142Z,5.8
2022-10-04T23:08:35.248Z,5.8
2022-10-04T23:13:36.056Z,5.8
2022-10-04T23:18:35.636Z,5.8
2022-10-04T23:23:35.101Z,5.7
2022-10-04T23:28:35.472Z,5.7
2022-10-04T23:33:35.214Z,5.7
2022-10-04T23:38:35.107Z,5.7
2022-10-04T23:43:35.312Z,5.6
2022-10-04T23:48:35.404Z,5.6
2022-10-04T23:53:35.091Z,5.6
2022-10-04T23:58:35.177Z,5.5
